Time;durP1;ratioP1;P1;durP2;ratioP2;P2;SDS_P1;SDS_P2;PMS_P1;PMS_P2;Temp;Humidity;BMP_temperature;BMP_pressure;BME280_temperature;BME280_humidity;BME280_pressure;Samples;Min_cycle;Max_cycle;Signal;HPM_P1;HPM_P2
2022/03/11 00:01:07;;;;;;;16.93;11.40;;;;;;;1.30;nan;99744.19;4886448;29;20210;-75
2022/03/11 00:03:33;;;;;;;16.85;11.50;;;;;;;1.33;nan;99743.28;4884539;29;20293;-74
2022/03/11 00:05:59;;;;;;;21.47;10.77;;;;;;;1.40;nan;99743.97;4886228;29;20226;-75
2022/03/11 00:08:24;;;;;;;25.47;13.40;;;;;;;1.46;nan;99749.88;4876627;29;20282;-75
2022/03/11 00:10:50;;;;;;;15.33;11.37;;;;;;;1.54;nan;99753.13;4884066;29;20621;-75
2022/03/11 00:13:15;;;;;;;18.70;10.20;;;;;;;1.58;nan;99746.13;4884413;29;20636;-75
2022/03/11 00:15:41;;;;;;;15.87;10.40;;;;;;;1.60;nan;99748.69;4883793;29;20241;-75
2022/03/11 00:18:07;;;;;;;17.92;11.48;;;;;;;1.60;nan;99743.50;4885216;29;20223;-75
2022/03/11 00:20:32;;;;;;;14.20;10.07;;;;;;;1.58;nan;99742.69;4874987;29;20199;-75
2022/03/11 00:22:58;;;;;;;13.47;10.83;;;;;;;1.46;nan;99742.09;4885569;29;20226;-75
2022/03/11 00:25:24;;;;;;;17.07;13.20;;;;;;;1.42;nan;99747.38;4884722;29;20231;-75
2022/03/11 00:27:51;;;;;;;18.70;12.20;;;;;;;1.42;nan;99744.78;4884703;29;20217;-75
2022/03/11 00:30:16;;;;;;;17.98;11.48;;;;;;;1.38;nan;99741.44;4885355;29;20477;-75
2022/03/11 00:32:42;;;;;;;17.53;11.80;;;;;;;1.39;nan;99739.69;4884361;29;20211;-75
2022/03/11 00:35:09;;;;;;;20.42;11.65;;;;;;;1.42;nan;99744.78;4878304;29;20555;-75
2022/03/11 00:37:39;;;;;;;17.92;11.25;;;;;;;1.40;nan;99744.81;4882628;29;20226;-75
2022/03/11 00:40:05;;;;;;;20.38;12.50;;;;;;;1.36;nan;99743.19;4885683;29;20226;-75
2022/03/11 00:42:31;;;;;;;14.88;12.30;;;;;;;1.31;nan;99742.47;4885893;29;20229;-76
2022/03/11 00:44:56;;;;;;;19.93;11.93;;;;;;;1.29;nan;99736.47;4885431;29;20493;-76
2022/03/11 00:47:22;;;;;;;19.03;11.50;;;;;;;1.28;nan;99739.94;4882870;29;20505;-76
2022/03/11 00:49:47;;;;;;;18.37;14.20;;;;;;;1.28;nan;99745.13;4885706;29;20241;-76
2022/03/11 00:52:13;;;;;;;18.33;13.73;;;;;;;1.23;nan;99746.97;4885548;29;20592;-76
2022/03/11 00:54:38;;;;;;;17.10;10.97;;;;;;;1.13;nan;99735.97;4884949;29;20336;-75
2022/03/11 00:57:04;;;;;;;18.37;10.77;;;;;;;0.98;nan;99744.94;4884646;29;20676;-74
2022/03/11 00:59:29;;;;;;;17.63;12.10;;;;;;;0.83;nan;99748.69;4882087;29;20620;-75
2022/03/11 01:01:54;;;;;;;21.10;14.48;;;;;;;0.82;nan;99747.00;4883217;29;20507;-74
2022/03/11 01:04:20;;;;;;;18.23;12.53;;;;;;;0.82;nan;99741.00;4885667;29;20790;-73
2022/03/11 01:06:46;;;;;;;15.07;11.77;;;;;;;0.79;nan;99746.22;4884556;29;20218;-75
2022/03/11 01:09:11;;;;;;;21.20;13.37;;;;;;;0.73;nan;99744.63;4885459;29;20229;-74
2022/03/11 01:11:37;;;;;;;20.00;13.10;;;;;;;0.72;nan;99736.91;4881152;29;20282;-74
2022/03/11 01:14:03;;;;;;;20.40;14.10;;;;;;;0.74;nan;99738.56;4877820;29;20207;-74
2022/03/11 01:16:29;;;;;;;28.63;14.25;;;;;;;0.76;nan;99733.38;4880251;29;20471;-74
2022/03/11 01:18:54;;;;;;;22.87;12.60;;;;;;;0.80;nan;99732.41;4878734;29;20238;-74
2022/03/11 01:21:20;;;;;;;18.13;13.20;;;;;;;0.81;nan;99736.69;4878968;29;20349;-74
2022/03/11 01:23:45;;;;;;;22.50;12.90;;;;;;;0.80;nan;99733.25;4883451;29;20355;-74
2022/03/11 01:26:12;;;;;;;15.83;12.90;;;;;;;0.76;nan;99734.22;4883406;29;20215;-74
2022/03/11 01:28:41;;;;;;;20.13;12.98;;;;;;;0.72;nan;99736.91;4884480;29;20239;-74
2022/03/11 01:31:08;;;;;;;18.33;12.20;;;;;;;0.71;nan;99735.22;4883602;29;20243;-74
2022/03/11 01:33:33;;;;;;;17.73;12.23;;;;;;;0.71;nan;99732.63;4883512;29;20199;-74
2022/03/11 01:35:59;;;;;;;16.80;11.37;;;;;;;0.72;nan;99736.91;4883591;29;20215;-74
2022/03/11 01:38:24;;;;;;;24.77;12.73;;;;;;;0.70;nan;99730.91;4881827;29;20289;-74
2022/03/11 01:40:49;;;;;;;15.50;11.90;;;;;;;0.61;nan;99732.78;4892031;29;20637;-74
2022/03/11 01:43:20;;;;;;;19.88;13.00;;;;;;;0.59;nan;99739.72;4904276;29;20227;-74
2022/03/11 01:45:45;;;;;;;21.03;13.60;;;;;;;0.61;nan;99740.56;4901738;29;20253;-73
2022/03/11 01:48:11;;;;;;;23.93;13.33;;;;;;;0.58;nan;99738.03;4887236;29;20589;-73
2022/03/11 01:50:41;;;;;;;18.80;12.30;;;;;;;0.57;nan;99738.09;4887188;29;20211;-73
2022/03/11 01:53:08;;;;;;;20.65;12.48;;;;;;;0.56;nan;99742.38;4888728;29;20207;-73
2022/03/11 01:55:35;;;;;;;17.08;11.63;;;;;;;0.55;nan;99739.84;4890836;29;20302;-73
2022/03/11 01:58:02;;;;;;;26.50;13.40;;;;;;;0.52;nan;99743.34;4901230;29;20207;-73
2022/03/11 02:00:27;;;;;;;20.90;12.88;;;;;;;0.46;nan;99740.00;4902234;29;20298;-73
2022/03/11 02:02:53;;;;;;;25.73;17.10;;;;;;;0.41;nan;99730.63;4901373;29;20510;-73
2022/03/11 02:05:18;;;;;;;16.70;13.50;;;;;;;0.38;nan;99729.84;4890520;29;20207;-73
2022/03/11 02:07:44;;;;;;;18.93;12.40;;;;;;;0.38;nan;99735.88;4886358;29;20686;-74
2022/03/11 02:10:09;;;;;;;19.77;12.43;;;;;;;0.32;nan;99727.38;4886997;29;20862;-73
2022/03/11 02:12:35;;;;;;;22.63;14.07;;;;;;;0.25;nan;99734.41;4887424;29;20211;-73
2022/03/11 02:15:08;;;;;;;16.37;10.97;;;;;;;0.23;nan;99738.75;4888156;29;20215;-73
2022/03/11 02:17:33;;;;;;;17.10;13.38;;;;;;;0.24;nan;99727.53;4887014;29;20215;-74
2022/03/11 02:19:59;;;;;;;17.77;13.03;;;;;;;0.26;nan;99728.34;4885895;29;20713;-74
2022/03/11 02:22:25;;;;;;;21.77;13.00;;;;;;;0.28;nan;99730.91;4887682;29;20243;-74
2022/03/11 02:24:52;;;;;;;25.08;13.25;;;;;;;0.29;nan;99730.03;4878577;29;20733;-73
2022/03/11 02:27:18;;;;;;;20.27;14.45;;;;;;;0.30;nan;99727.41;4885709;29;20664;-74
2022/03/11 02:29:44;;;;;;;15.60;10.25;;;;;;;0.26;nan;99725.75;4885396;29;20716;-73
2022/03/11 02:32:09;;;;;;;22.53;15.97;;;;;;;0.23;nan;99728.41;4886892;29;20499;-73
2022/03/11 02:34:37;;;;;;;20.37;13.73;;;;;;;0.20;nan;99724.16;4888002;29;20207;-73
2022/03/11 02:37:04;;;;;;;16.38;12.45;;;;;;;0.20;nan;99726.75;4886942;29;20261;-73
2022/03/11 02:39:30;;;;;;;17.75;13.25;;;;;;;0.16;nan;99727.69;4886751;29;20701;-73
2022/03/11 02:41:55;;;;;;;22.50;13.10;;;;;;;0.14;nan;99726.88;4887339;29;20282;-73
2022/03/11 02:44:22;;;;;;;17.43;10.93;;;;;;;0.10;nan;99725.22;4886937;29;20214;-73
2022/03/11 02:46:48;;;;;;;15.90;11.63;;;;;;;0.01;nan;99717.66;4886102;29;20439;-75
2022/03/11 02:49:13;;;;;;;20.23;12.50;;;;;;;-0.04;nan;99719.47;4887761;29;20225;-74
2022/03/11 02:51:39;;;;;;;18.57;13.40;;;;;;;-0.13;nan;99720.50;4887179;29;20275;-75
2022/03/11 02:54:04;;;;;;;15.27;10.80;;;;;;;-0.15;nan;99718.81;4877718;29;20242;-74
2022/03/11 02:56:30;;;;;;;17.40;12.33;;;;;;;-0.17;nan;99720.56;4899711;29;20238;-74
2022/03/11 02:58:55;;;;;;;17.00;11.90;;;;;;;-0.15;nan;99718.81;4906971;29;20845;-75
2022/03/11 03:01:20;;;;;;;19.33;11.90;;;;;;;-0.14;nan;99710.19;4905213;29;20218;-74
2022/03/11 03:03:46;;;;;;;20.20;13.13;;;;;;;-0.19;nan;99717.16;4902815;29;20292;-74
2022/03/11 03:06:11;;;;;;;23.57;12.07;;;;;;;-0.27;nan;99714.69;4905531;29;20214;-75
2022/03/11 03:08:37;;;;;;;17.70;13.90;;;;;;;-0.24;nan;99720.69;4902656;29;21210;-74
2022/03/11 03:11:02;;;;;;;17.93;11.87;;;;;;;-0.21;nan;99712.03;4905835;29;20214;-75
2022/03/11 03:13:28;;;;;;;16.23;11.50;;;;;;;-0.17;nan;99705.06;4890281;29;20549;-74
2022/03/11 03:15:53;;;;;;;12.80;10.87;;;;;;;-0.15;nan;99714.50;4886385;29;20214;-74
2022/03/11 03:18:18;;;;;;;18.00;10.93;;;;;;;-0.17;nan;99712.81;4885610;29;20223;-74
2022/03/11 03:20:44;;;;;;;22.70;13.43;;;;;;;-0.17;nan;99705.91;4883765;29;20783;-74
2022/03/11 03:23:10;;;;;;;16.93;10.97;;;;;;;-0.17;nan;99710.22;4887024;29;20295;-75
2022/03/11 03:25:35;;;;;;;14.27;11.40;;;;;;;-0.17;nan;99700.75;4885666;29;20275;-74
2022/03/11 03:28:01;;;;;;;17.83;12.67;;;;;;;-0.14;nan;99711.03;4883439;29;20226;-74
2022/03/11 03:30:26;;;;;;;18.00;11.37;;;;;;;-0.11;nan;99710.13;4884888;29;20202;-74
2022/03/11 03:32:51;;;;;;;21.63;14.80;;;;;;;-0.08;nan;99705.78;4884963;29;20956;-74
2022/03/11 03:35:17;;;;;;;20.50;13.30;;;;;;;-0.08;nan;99704.88;4887039;29;20218;-75
2022/03/11 03:37:42;;;;;;;16.07;12.60;;;;;;;-0.12;nan;99700.69;4885113;29;20230;-74
2022/03/11 03:40:09;;;;;;;20.20;13.68;;;;;;;-0.16;nan;99696.44;4885665;29;20246;-74
2022/03/11 03:42:35;;;;;;;14.55;11.27;;;;;;;-0.18;nan;99696.47;4886824;29;20556;-75
2022/03/11 03:45:01;;;;;;;14.00;10.23;;;;;;;-0.21;nan;99698.28;4885386;29;20756;-74
2022/03/11 03:47:26;;;;;;;21.60;11.97;;;;;;;-0.22;nan;99697.41;4884553;29;20535;-75
2022/03/11 03:49:51;;;;;;;21.63;11.83;;;;;;;-0.20;nan;99705.13;4884782;29;20858;-74
2022/03/11 03:52:17;;;;;;;15.70;10.63;;;;;;;-0.25;nan;99700.03;4884121;29;20298;-74
2022/03/11 03:54:44;;;;;;;20.57;12.03;;;;;;;-0.32;nan;99703.63;4885120;29;20306;-75
2022/03/11 03:57:10;;;;;;;18.92;12.40;;;;;;;-0.38;nan;99703.72;4885610;29;20984;-74
2022/03/11 03:59:35;;;;;;;15.03;9.87;;;;;;;-0.49;nan;99709.06;4883808;29;20227;-75
2022/03/11 04:02:01;;;;;;;19.10;12.68;;;;;;;-0.52;nan;99704.81;4882931;29;20493;-74
2022/03/11 04:04:26;;;;;;;19.53;12.40;;;;;;;-0.53;nan;99699.69;4882314;29;20206;-74
2022/03/11 04:06:52;;;;;;;20.27;11.43;;;;;;;-0.55;nan;99702.28;4885532;29;20237;-74
2022/03/11 04:09:18;;;;;;;14.87;11.37;;;;;;;-0.51;nan;99697.94;4886011;29;20235;-74
2022/03/11 04:11:43;;;;;;;16.88;10.55;;;;;;;-0.52;nan;99691.91;4884628;29;20450;-75
2022/03/11 04:14:09;;;;;;;18.73;10.90;;;;;;;-0.54;nan;99692.81;4885248;29;20645;-74
2022/03/11 04:16:34;;;;;;;17.30;11.00;;;;;;;-0.51;nan;99705.69;4884615;29;20221;-74
2022/03/11 04:19:00;;;;;;;13.90;10.07;;;;;;;-0.55;nan;99693.69;4882654;29;21313;-74
2022/03/11 04:21:25;;;;;;;13.17;10.00;;;;;;;-0.56;nan;99697.16;4882485;29;20214;-74
2022/03/11 04:23:51;;;;;;;15.70;9.43;;;;;;;-0.53;nan;99703.13;4884838;29;20218;-75
2022/03/11 04:26:18;;;;;;;16.38;10.27;;;;;;;-0.51;nan;99700.53;4886226;29;20211;-74
2022/03/11 04:28:43;;;;;;;16.27;10.95;;;;;;;-0.49;nan;99706.47;4884162;29;20441;-74
2022/03/11 04:31:11;;;;;;;21.43;11.53;;;;;;;-0.47;nan;99708.16;4885372;29;20624;-75
2022/03/11 04:33:39;;;;;;;16.05;10.25;;;;;;;-0.46;nan;99706.44;4884456;29;20466;-74
2022/03/11 04:36:05;;;;;;;22.90;11.80;;;;;;;-0.49;nan;99699.63;4884487;29;20211;-74
2022/03/11 04:38:31;;;;;;;18.38;9.05;;;;;;;-0.49;nan;99702.19;4886109;29;20860;-74
2022/03/11 04:40:57;;;;;;;18.50;13.75;;;;;;;-0.49;nan;99696.16;4883277;29;20643;-74
2022/03/11 04:43:22;;;;;;;18.90;10.10;;;;;;;-0.50;nan;99703.06;4882754;29;20254;-74
2022/03/11 04:45:48;;;;;;;12.90;9.20;;;;;;;-0.53;nan;99697.13;4883862;29;20294;-74
2022/03/11 04:48:13;;;;;;;13.57;9.97;;;;;;;-0.52;nan;99694.50;4885361;29;20235;-74
2022/03/11 04:50:39;;;;;;;14.37;10.30;;;;;;;-0.50;nan;99697.06;4883818;29;20202;-74
2022/03/11 04:53:04;;;;;;;13.60;9.87;;;;;;;-0.49;nan;99709.06;4884373;29;20205;-74
2022/03/11 04:55:31;;;;;;;13.68;10.20;;;;;;;-0.50;nan;99707.38;4882332;29;20811;-75
2022/03/11 04:57:56;;;;;;;16.40;10.60;;;;;;;-0.48;nan;99697.88;4890521;29;20248;-75
2022/03/11 05:00:22;;;;;;;13.87;9.13;;;;;;;-0.47;nan;99689.25;4899941;29;20202;-73
2022/03/11 05:02:47;;;;;;;19.73;12.85;;;;;;;-0.44;nan;99681.47;4901370;29;21063;-74
2022/03/11 05:05:15;;;;;;;11.93;8.70;;;;;;;-0.46;nan;99685.78;4902335;29;20210;-74
2022/03/11 05:07:41;;;;;;;16.98;9.20;;;;;;;-0.49;nan;99676.41;4903578;29;20206;-75
2022/03/11 05:10:10;;;;;;;18.65;9.35;;;;;;;-0.48;nan;99680.66;4903743;29;20332;-74
2022/03/11 05:12:37;;;;;;;13.43;9.57;;;;;;;-0.46;nan;99684.09;4889309;29;20242;-74
2022/03/11 05:15:05;;;;;;;13.27;8.60;;;;;;;-0.41;nan;99683.97;4903442;29;20209;-75
2022/03/11 05:17:31;;;;;;;16.88;10.05;;;;;;;-0.39;nan;99679.66;4907734;29;20836;-74
2022/03/11 05:19:56;;;;;;;12.83;7.53;;;;;;;-0.39;nan;99684.81;4905542;29;20719;-74
2022/03/11 05:22:22;;;;;;;12.40;7.50;;;;;;;-0.39;nan;99674.50;4902901;29;20489;-74
2022/03/11 05:24:49;;;;;;;12.15;6.63;;;;;;;-0.35;nan;99676.16;4895498;29;20518;-75
2022/03/11 05:27:14;;;;;;;9.20;7.20;;;;;;;-0.35;nan;99673.56;4907174;29;20249;-75
2022/03/11 05:29:40;;;;;;;9.37;7.20;;;;;;;-0.32;nan;99689.00;4907025;29;20726;-75
2022/03/11 05:32:10;;;;;;;13.07;9.13;;;;;;;-0.29;nan;99683.78;4904480;29;20577;-73
2022/03/11 05:34:39;;;;;;;12.57;7.78;;;;;;;-0.27;nan;99683.72;4905758;29;20645;-75
2022/03/11 05:37:05;;;;;;;9.50;7.40;;;;;;;-0.29;nan;99682.94;4906420;29;20202;-74
2022/03/11 05:39:31;;;;;;;9.37;6.90;;;;;;;-0.34;nan;99685.59;4905146;29;20655;-74
2022/03/11 05:41:57;;;;;;;7.47;6.32;;;;;;;-0.34;nan;99690.75;4904357;29;20530;-75
2022/03/11 05:44:23;;;;;;;10.10;5.90;;;;;;;-0.36;nan;99683.91;4906097;29;20248;-74
2022/03/11 05:46:52;;;;;;;8.73;7.28;;;;;;;-0.37;nan;99687.38;4903992;29;20210;-74
2022/03/11 05:49:18;;;;;;;8.90;6.03;;;;;;;-0.36;nan;99691.66;4905273;29;20254;-75
2022/03/11 05:51:43;;;;;;;11.23;8.07;;;;;;;-0.34;nan;99680.41;4906017;29;20194;-75
2022/03/11 05:54:09;;;;;;;9.03;8.20;;;;;;;-0.32;nan;99683.84;4903235;29;20861;-76
2022/03/11 05:56:34;;;;;;;14.20;7.20;;;;;;;-0.30;nan;99683.78;4907070;29;20214;-75
2022/03/11 05:59:00;;;;;;;9.47;7.23;;;;;;;-0.28;nan;99684.63;4905162;29;20598;-75
2022/03/11 06:01:26;;;;;;;12.17;8.20;;;;;;;-0.26;nan;99686.28;4904617;29;20494;-75
2022/03/11 06:03:51;;;;;;;13.30;7.67;;;;;;;-0.23;nan;99690.56;4903135;29;20889;-76
2022/03/11 06:06:17;;;;;;;9.67;7.67;;;;;;;-0.24;nan;99694.03;4902604;29;20202;-75
2022/03/11 06:08:43;;;;;;;11.50;7.88;;;;;;;-0.24;nan;99694.88;4905929;29;20253;-76
2022/03/11 06:11:09;;;;;;;14.00;10.70;;;;;;;-0.32;nan;99696.75;4904125;29;20218;-76
2022/03/11 06:13:35;;;;;;;20.73;14.80;;;;;;;-0.47;nan;99707.31;4903045;29;20626;-75
2022/03/11 06:16:01;;;;;;;16.75;11.90;;;;;;;-0.62;nan;99708.44;4905161;29;20206;-76
2022/03/11 06:18:28;;;;;;;16.30;9.93;;;;;;;-0.72;nan;99700.00;4904824;29;20226;-76
2022/03/11 06:20:53;;;;;;;11.13;10.03;;;;;;;-0.76;nan;99700.91;4905926;29;20631;-76
2022/03/11 06:23:19;;;;;;;13.80;10.60;;;;;;;-0.76;nan;99702.63;4902410;29;20241;-76
2022/03/11 06:25:44;;;;;;;11.50;9.30;;;;;;;-0.67;nan;99705.09;4906339;29;20520;-76
2022/03/11 06:28:10;;;;;;;15.07;10.33;;;;;;;-0.56;nan;99707.50;4903044;29;20253;-76
2022/03/11 06:30:35;;;;;;;10.77;9.03;;;;;;;-0.48;nan;99701.31;4906189;29;20203;-76
2022/03/11 06:33:01;;;;;;;14.13;8.57;;;;;;;-0.38;nan;99702.00;4905352;29;20632;-76
2022/03/11 06:35:26;;;;;;;13.53;9.50;;;;;;;-0.31;nan;99702.75;4904752;29;20198;-76
2022/03/11 06:37:52;;;;;;;12.43;8.23;;;;;;;-0.25;nan;99700.88;4905710;29;20224;-76
2022/03/11 06:40:18;;;;;;;10.57;7.93;;;;;;;-0.18;nan;99699.06;4907219;29;20669;-76
2022/03/11 06:42:45;;;;;;;14.60;9.85;;;;;;;-0.11;nan;99704.94;4903387;29;20790;-76
2022/03/11 06:45:13;;;;;;;13.63;7.50;;;;;;;-0.07;nan;99704.88;4902797;29;20214;-76
2022/03/11 06:47:38;;;;;;;13.68;8.75;;;;;;;-0.03;nan;99706.53;4902497;29;20214;-76
2022/03/11 06:50:05;;;;;;;11.13;8.80;;;;;;;0.03;nan;99708.16;4905734;29;20230;-76
2022/03/11 06:52:31;;;;;;;13.00;10.52;;;;;;;-0.03;nan;99703.94;4904318;29;20991;-76
2022/03/11 06:54:57;;;;;;;12.13;8.63;;;;;;;-0.17;nan;99710.22;4902534;29;20313;-76
2022/03/11 06:57:22;;;;;;;13.98;9.20;;;;;;;-0.31;nan;99716.50;4904957;29;20462;-76
2022/03/11 06:59:48;;;;;;;22.63;11.97;;;;;;;-0.34;nan;99707.97;4903154;29;20214;-76
2022/03/11 07:02:14;;;;;;;18.90;10.88;;;;;;;-0.28;nan;99707.84;4900155;29;20650;-75
2022/03/11 07:04:40;;;;;;;15.40;9.63;;;;;;;-0.18;nan;99716.28;4902337;29;20687;-76
2022/03/11 07:07:06;;;;;;;13.65;8.43;;;;;;;-0.07;nan;99711.78;4901297;29;21091;-75
2022/03/11 07:09:32;;;;;;;12.83;8.33;;;;;;;0.05;nan;99715.84;4902875;29;20386;-75
2022/03/11 07:12:01;;;;;;;15.98;8.07;;;;;;;0.17;nan;99716.47;4902989;29;20394;-75
2022/03/11 07:14:33;;;;;;;17.10;9.40;;;;;;;0.30;nan;99717.09;4905881;29;20616;-75
2022/03/11 07:16:59;;;;;;;16.75;8.70;;;;;;;0.40;nan;99716.00;4903980;29;20206;-75
2022/03/11 07:19:24;;;;;;;10.07;6.77;;;;;;;0.50;nan;99714.09;4904577;29;20233;-74
2022/03/11 07:21:50;;;;;;;11.53;8.33;;;;;;;0.55;nan;99722.59;4903999;29;20486;-75
2022/03/11 07:24:16;;;;;;;19.77;8.30;;;;;;;0.60;nan;99720.75;4902475;29;20470;-73
2022/03/11 07:26:41;;;;;;;11.00;8.57;;;;;;;0.67;nan;99716.31;4902014;29;20226;-76
2022/03/11 07:29:06;;;;;;;12.87;8.47;;;;;;;0.74;nan;99725.63;4901207;29;20537;-74
2022/03/11 07:31:32;;;;;;;19.50;8.47;;;;;;;0.83;nan;99722.84;4900935;29;20608;-75
2022/03/11 07:33:58;;;;;;;10.53;6.70;;;;;;;0.94;nan;99730.34;4903533;29;20240;-74
2022/03/11 07:36:24;;;;;;;13.95;9.00;;;;;;;1.08;nan;99724.88;4905185;29;20548;-74
2022/03/11 07:38:50;;;;;;;9.60;7.53;;;;;;;1.17;nan;99716.06;4903621;29;20240;-75
2022/03/11 07:41:16;;;;;;;14.70;8.60;;;;;;;1.27;nan;99723.56;4902695;29;20904;-75
2022/03/11 07:43:44;;;;;;;9.85;7.32;;;;;;;1.38;nan;99725.03;4903621;29;20241;-76
2022/03/11 07:46:14;;;;;;;12.20;6.90;;;;;;;1.51;nan;99711.78;4905509;29;20629;-74
2022/03/11 07:48:40;;;;;;;11.18;7.15;;;;;;;1.64;nan;99716.63;4902212;29;20253;-75
2022/03/11 07:51:06;;;;;;;8.90;7.20;;;;;;;1.74;nan;99715.50;4904766;29;20203;-75
2022/03/11 07:53:32;;;;;;;10.60;7.50;;;;;;;1.82;nan;99729.09;4903858;29;20591;-74
2022/03/11 07:55:57;;;;;;;12.33;8.33;;;;;;;1.92;nan;99727.16;4903116;29;20482;-74
2022/03/11 07:58:24;;;;;;;8.23;7.43;;;;;;;2.05;nan;99725.91;4904535;29;20253;-75
2022/03/11 08:00:49;;;;;;;8.18;6.45;;;;;;;2.19;nan;99728.13;4903015;29;20210;-75
2022/03/11 08:03:15;;;;;;;10.27;6.67;;;;;;;2.30;nan;99723.50;4903472;29;20413;-76
2022/03/11 08:05:41;;;;;;;11.23;6.47;;;;;;;2.45;nan;99727.38;4902629;29;20214;-74
2022/03/11 08:08:06;;;;;;;10.20;6.07;;;;;;;2.58;nan;99723.56;4902576;29;20217;-76
2022/03/11 08:10:36;;;;;;;11.10;8.03;;;;;;;2.69;nan;99714.63;4907276;29;20238;-74
2022/03/11 08:13:03;;;;;;;11.38;6.60;;;;;;;2.80;nan;99723.75;4905012;29;20270;-74
2022/03/11 08:15:29;;;;;;;9.73;5.97;;;;;;;3.00;nan;99724.94;4906074;29;20229;-77
2022/03/11 08:17:56;;;;;;;7.68;6.25;;;;;;;3.67;nan;99720.16;4903138;29;20301;-74
2022/03/11 08:20:21;;;;;;;8.40;7.00;;;;;;;4.79;nan;99716.13;4906955;29;20229;-76
2022/03/11 08:22:48;;;;;;;10.90;8.60;;;;;;;5.98;nan;99709.63;4907351;29;20238;-78
2022/03/11 08:25:15;;;;;;;12.93;8.50;;;;;;;6.80;nan;99704.19;4899430;29;20198;-78
2022/03/11 08:27:40;;;;;;;13.27;9.98;;;;;;;7.68;nan;99701.66;4895502;29;20531;-78
2022/03/11 08:30:07;;;;;;;13.77;8.47;;;;;;;8.42;nan;99692.66;4900231;29;20628;-76
2022/03/11 08:32:33;;;;;;;12.93;8.13;;;;;;;9.25;nan;99688.09;4900024;29;20456;-76
2022/03/11 08:34:58;;;;;;;11.37;9.37;;;;;;;10.01;nan;99689.81;4905050;29;20336;-77
2022/03/11 08:37:25;;;;;;;9.97;8.43;;;;;;;10.64;nan;99689.47;4905530;29;20238;-75
2022/03/11 08:39:51;;;;;;;13.25;9.60;;;;;;;11.19;nan;99685.09;4905211;29;20604;-77
2022/03/11 08:42:16;;;;;;;13.43;9.53;;;;;;;11.56;nan;99683.53;4904969;29;20257;-75
2022/03/11 08:44:42;;;;;;;10.90;9.53;;;;;;;11.93;nan;99670.53;4902523;29;20474;-75
2022/03/11 08:47:09;;;;;;;12.03;9.30;;;;;;;12.47;nan;99686.09;4900156;29;20588;-77
2022/03/11 08:49:35;;;;;;;13.35;10.70;;;;;;;12.94;nan;99684.53;4903642;29;20750;-72
2022/03/11 08:52:01;;;;;;;14.73;11.27;;;;;;;13.36;nan;99661.25;4900833;29;20213;-76
2022/03/11 08:54:26;;;;;;;13.27;11.30;;;;;;;13.54;nan;99666.13;4902113;29;20206;-73
2022/03/11 08:56:53;;;;;;;11.80;9.20;;;;;;;13.84;nan;99658.53;4900562;29;20392;-73
2022/03/11 08:59:19;;;;;;;13.82;9.93;;;;;;;13.93;nan;99657.84;4903021;29;20268;-75
2022/03/11 09:01:44;;;;;;;16.67;10.07;;;;;;;13.73;nan;99661.97;4899041;29;20222;-73
2022/03/11 09:04:10;;;;;;;14.90;10.03;;;;;;;13.64;nan;99657.41;4899783;29;20985;-76
2022/03/11 09:06:35;;;;;;;12.87;9.40;;;;;;;13.80;nan;99661.50;4901237;29;20222;-72
2022/03/11 09:09:00;;;;;;;15.80;11.80;;;;;;;14.06;nan;99662.97;4900593;29;20234;-73
2022/03/11 09:11:26;;;;;;;12.67;8.80;;;;;;;14.30;nan;99657.59;4902147;29;20652;-72
2022/03/11 09:13:51;;;;;;;14.20;9.87;;;;;;;14.46;nan;99649.31;4899655;29;20202;-74
2022/03/11 09:16:17;;;;;;;10.87;8.93;;;;;;;14.56;nan;99652.94;4899693;29;20621;-75
2022/03/11 09:18:42;;;;;;;16.67;11.07;;;;;;;14.62;nan;99654.25;4897039;29;20481;-73
2022/03/11 09:21:08;;;;;;;13.90;9.47;;;;;;;14.43;nan;99651.38;4899545;29;20203;-74
2022/03/11 09:23:33;;;;;;;12.33;10.63;;;;;;;13.91;nan;99649.19;4898220;29;20230;-72
2022/03/11 09:25:58;;;;;;;11.60;9.83;;;;;;;13.92;nan;99642.94;4901245;29;20222;-72
2022/03/11 09:28:24;;;;;;;12.17;9.43;;;;;;;13.74;nan;99639.06;4904575;29;20247;-75
2022/03/11 09:30:49;;;;;;;13.70;9.43;;;;;;;13.48;nan;99641.88;4902737;29;20209;-74
2022/03/11 09:33:15;;;;;;;13.40;8.70;;;;;;;13.07;nan;99644.94;4903925;29;20694;-78
2022/03/11 09:35:40;;;;;;;12.27;9.07;;;;;;;12.60;nan;99643.94;4902364;29;20218;-75
2022/03/11 09:38:06;;;;;;;12.77;10.00;;;;;;;12.44;nan;99643.34;4900608;29;20206;-75
2022/03/11 09:40:33;;;;;;;11.23;8.30;;;;;;;12.29;nan;99638.22;4903796;29;20225;-75
2022/03/11 09:43:00;;;;;;;12.73;9.20;;;;;;;12.05;nan;99648.66;4900756;29;20591;-73
2022/03/11 09:45:27;;;;;;;11.00;8.68;;;;;;;11.94;nan;99640.66;4903025;29;20481;-75
2022/03/11 09:47:53;;;;;;;17.70;10.85;;;;;;;11.86;nan;99628.03;4906309;29;20500;-75
2022/03/11 09:50:19;;;;;;;11.57;8.65;;;;;;;11.76;nan;99626.09;4902258;29;20233;-74
2022/03/11 09:52:47;;;;;;;14.87;9.47;;;;;;;11.73;nan;99619.25;4899057;29;20912;-75
2022/03/11 09:55:13;;;;;;;11.98;8.65;;;;;;;11.59;nan;99619.34;4902016;29;20446;-74
2022/03/11 09:57:38;;;;;;;16.70;9.87;;;;;;;11.30;nan;99630.84;4902622;29;20266;-76
2022/03/11 10:00:05;;;;;;;11.67;8.57;;;;;;;10.94;nan;99631.50;4905008;29;20301;-74
2022/03/11 10:02:41;;;;;;;13.38;10.02;;;;;;;10.95;nan;99630.53;4900736;29;20537;-74
2022/03/11 10:05:07;;;;;;;17.25;10.40;;;;;;;10.90;nan;99626.53;4904156;29;20462;-74
2022/03/11 10:07:32;;;;;;;12.07;8.40;;;;;;;10.79;nan;99621.97;4905692;29;20281;-74
2022/03/11 10:10:17;;;;;;;12.00;9.43;;;;;;;10.74;nan;99616.16;4906021;29;20328;-75
2022/03/11 10:12:46;;;;;;;15.20;9.85;;;;;;;10.84;nan;99615.47;4905127;29;20581;-75
2022/03/11 10:15:12;;;;;;;12.15;8.23;;;;;;;10.94;nan;99607.00;4904925;29;20301;-74
2022/03/11 10:17:41;;;;;;;13.27;11.52;;;;;;;11.10;nan;99605.06;4906676;29;20226;-74
2022/03/11 10:20:12;;;;;;;14.65;9.43;;;;;;;11.14;nan;99600.44;4904820;29;20784;-76
2022/03/11 10:22:40;;;;;;;13.85;10.07;;;;;;;11.16;nan;99609.06;4905601;29;20733;-74
2022/03/11 10:25:16;;;;;;;12.65;8.80;;;;;;;11.16;nan;99601.19;4906688;29;20210;-76
2022/03/11 10:28:08;;;;;;;14.20;10.50;;;;;;;11.20;nan;99595.59;4904994;29;20226;-72
2022/03/11 10:30:36;;;;;;;14.27;8.55;;;;;;;11.24;nan;99583.09;4904925;29;20253;-75
2022/03/11 10:33:04;;;;;;;14.98;11.77;;;;;;;11.33;nan;99581.63;4905765;29;20561;-77
2022/03/11 10:35:37;;;;;;;15.90;10.25;;;;;;;11.34;nan;99581.56;4907140;29;20198;-74
2022/03/11 10:38:08;;;;;;;19.52;11.40;;;;;;;11.34;nan;99585.94;4904602;29;20668;-75
2022/03/11 10:40:35;;;;;;;13.77;9.93;;;;;;;11.40;nan;99581.13;4905419;29;20214;-74
2022/03/11 10:43:28;;;;;;;14.45;9.55;;;;;;;11.43;nan;99580.09;4906135;29;20698;-78
2022/03/11 10:46:06;;;;;;;11.90;10.38;;;;;;;11.34;nan;99567.53;4903242;29;20735;-75
2022/03/11 10:48:54;;;;;;;12.05;9.25;;;;;;;11.32;nan;99572.09;4902144;29;20654;-76
2022/03/11 10:51:32;;;;;;;12.68;9.77;;;;;;;11.18;nan;99567.72;4906066;29;20405;-72
2022/03/11 10:54:10;;;;;;;18.45;11.85;;;;;;;11.21;nan;99565.75;4904780;29;20210;-75
2022/03/11 10:56:40;;;;;;;11.88;9.23;;;;;;;11.37;nan;99556.81;4905200;29;20233;-73
2022/03/11 10:59:12;;;;;;;13.82;9.98;;;;;;;11.42;nan;99557.34;4904318;29;20202;-75
2022/03/11 11:01:43;;;;;;;15.43;12.25;;;;;;;11.46;nan;99553.56;4903346;29;20224;-77
2022/03/11 11:04:11;;;;;;;12.23;9.65;;;;;;;11.47;nan;99556.06;4904804;29;20210;-75
2022/03/11 11:06:38;;;;;;;14.32;10.80;;;;;;;11.49;nan;99554.19;4903885;29;20249;-75
2022/03/11 11:09:04;;;;;;;15.02;9.63;;;;;;;11.58;nan;99544.81;4903817;29;20238;-77
2022/03/11 11:11:31;;;;;;;13.93;10.43;;;;;;;11.72;nan;99538.63;4898995;29;20252;-73
2022/03/11 11:13:59;;;;;;;15.38;11.38;;;;;;;11.83;nan;99532.63;4904130;29;20762;-74
2022/03/11 11:16:28;;;;;;;18.00;11.82;;;;;;;11.85;nan;99521.00;4905335;29;21239;-76
2022/03/11 11:18:58;;;;;;;23.23;13.45;;;;;;;11.81;nan;99523.97;4902537;29;20607;-76
2022/03/11 11:21:25;;;;;;;15.90;11.27;;;;;;;11.83;nan;99508.94;4905160;29;20211;-73
2022/03/11 11:23:55;;;;;;;14.57;11.43;;;;;;;11.89;nan;99509.38;4904678;29;20222;-73
2022/03/11 11:26:25;;;;;;;17.23;11.27;;;;;;;11.86;nan;99504.31;4903753;29;20362;-71
2022/03/11 11:28:59;;;;;;;20.58;12.18;;;;;;;11.84;nan;99505.34;4903592;29;20242;-74
2022/03/11 11:31:25;;;;;;;11.40;9.80;;;;;;;11.81;nan;99501.13;4903438;29;20234;-71
2022/03/11 11:33:51;;;;;;;16.33;11.07;;;;;;;11.85;nan;99491.22;4904583;29;20293;-74
2022/03/11 11:36:37;;;;;;;15.80;11.20;;;;;;;11.87;nan;99486.72;4904183;29;20738;-71
2022/03/11 11:39:05;;;;;;;21.42;10.90;;;;;;;11.90;nan;99478.63;4905033;29;20541;-71